createdAt,value
2023-04-24T00:00:06.476Z,7.60
2023-04-24T00:02:35.314Z,7.73
2023-04-24T00:05:05.602Z,6.83
2023-04-24T00:07:33.984Z,7.13
2023-04-24T00:10:02.463Z,5.47
2023-04-24T00:12:30.810Z,4.70
2023-04-24T00:15:00.506Z,6.13
2023-04-24T00:17:28.911Z,4.33
2023-04-24T00:19:59.632Z,5.47
2023-04-24T00:22:28.339Z,6.10
2023-04-24T00:24:56.996Z,7.00
2023-04-24T00:27:25.342Z,4.03
2023-04-24T00:29:53.581Z,5.23
2023-04-24T00:32:23.288Z,4.97
2023-04-24T00:34:51.661Z,4.67
2023-04-24T00:37:19.927Z,5.07
2023-04-24T00:39:48.188Z,4.30
2023-04-24T00:42:16.759Z,4.53
2023-04-24T00:44:45.272Z,4.10
2023-04-24T00:47:15.097Z,4.67
2023-04-24T00:49:45.181Z,5.20
2023-04-24T00:52:13.692Z,6.07
2023-04-24T00:54:41.971Z,4.30
2023-04-24T00:57:10.252Z,4.40
2023-04-24T00:59:38.778Z,4.47
2023-04-24T01:02:07.449Z,4.67
2023-04-24T01:04:36.061Z,5.67
2023-04-24T01:07:10.961Z,4.97
2023-04-24T01:09:40.315Z,5.80
2023-04-24T01:12:10.175Z,5.50
2023-04-24T01:14:39.725Z,8.30
2023-04-24T01:17:08.409Z,8.13
2023-04-24T01:19:36.739Z,5.10
2023-04-24T01:22:11.605Z,5.73
2023-04-24T01:24:40.065Z,6.00
2023-04-24T01:27:08.869Z,6.07
2023-04-24T01:29:37.677Z,4.30
2023-04-24T01:32:06.913Z,6.07
2023-04-24T01:34:35.617Z,8.83
2023-04-24T01:37:03.907Z,8.60
2023-04-24T01:39:34.538Z,6.97
2023-04-24T01:42:03.343Z,6.07
2023-04-24T01:44:32.610Z,6.67
2023-04-24T01:47:02.458Z,7.17
2023-04-24T01:49:30.801Z,6.67
2023-04-24T01:51:59.105Z,7.87
2023-04-24T01:54:27.572Z,7.30
2023-04-24T01:56:57.516Z,5.00
2023-04-24T01:59:27.528Z,5.90
2023-04-24T02:01:55.793Z,5.27
2023-04-24T02:04:24.157Z,5.67
2023-04-24T02:06:52.498Z,5.00
2023-04-24T02:09:20.763Z,7.23
2023-04-24T02:11:49.044Z,5.63
2023-04-24T02:14:18.736Z,4.77
2023-04-24T02:16:47.223Z,7.37
2023-04-24T02:19:15.621Z,4.47
2023-04-24T02:21:43.859Z,6.17
2023-04-24T02:24:12.165Z,4.97
2023-04-24T02:26:40.597Z,4.83
2023-04-24T02:29:08.897Z,4.47
2023-04-24T02:31:38.615Z,7.63
2023-04-24T02:34:09.512Z,5.03
2023-04-24T02:36:37.883Z,8.50
2023-04-24T02:39:06.267Z,5.73
2023-04-24T02:41:34.518Z,5.40
2023-04-24T02:44:02.883Z,6.90
2023-04-24T02:46:31.250Z,5.50
2023-04-24T02:49:00.949Z,5.87
2023-04-24T02:51:29.199Z,6.37
2023-04-24T02:53:57.513Z,8.00
2023-04-24T02:56:25.838Z,6.07
2023-04-24T02:58:54.162Z,6.33
2023-04-24T03:01:22.373Z,4.77
2023-04-24T03:03:50.859Z,5.90
2023-04-24T03:06:22.609Z,6.27
2023-04-24T03:08:51.002Z,4.93
2023-04-24T03:11:19.284Z,5.90
2023-04-24T03:13:47.600Z,7.33
2023-04-24T03:16:15.957Z,6.07
2023-04-24T03:18:44.262Z,5.27
2023-04-24T03:21:12.599Z,6.13
2023-04-24T03:23:42.237Z,7.70
2023-04-24T03:26:10.694Z,7.47
2023-04-24T03:28:38.949Z,8.13
2023-04-24T03:31:07.317Z,9.77
2023-04-24T03:33:35.687Z,7.50
2023-04-24T03:36:04.004Z,8.10
2023-04-24T03:38:32.211Z,9.37
2023-04-24T03:41:01.929Z,10.40
2023-04-24T03:43:30.189Z,10.13
2023-04-24T03:45:58.503Z,12.43
2023-04-24T03:48:27.206Z,17.07
2023-04-24T03:50:55.700Z,7.73
2023-04-24T03:53:23.982Z,5.07
2023-04-24T03:55:52.238Z,7.60
2023-04-24T03:58:21.897Z,9.37
2023-04-24T04:00:50.874Z,8.07
2023-04-24T04:03:19.383Z,8.27
2023-04-24T04:05:47.951Z,8.43
2023-04-24T04:08:16.295Z,5.60
2023-04-24T04:10:44.560Z,8.03
2023-04-24T04:13:12.794Z,9.50
2023-04-24T04:15:42.967Z,11.20
2023-04-24T04:18:11.322Z,8.63
2023-04-24T04:20:39.590Z,8.30
2023-04-24T04:23:08.246Z,8.33
2023-04-24T04:25:36.654Z,7.37
2023-04-24T04:28:04.986Z,6.70
2023-04-24T04:30:33.286Z,6.60
2023-04-24T04:33:03.829Z,6.57
2023-04-24T04:35:32.176Z,7.47
2023-04-24T04:38:00.919Z,9.33
2023-04-24T04:40:29.490Z,8.87
2023-04-24T04:42:57.861Z,6.70
2023-04-24T04:45:28.652Z,7.00
2023-04-24T04:47:57.852Z,11.20
2023-04-24T04:50:27.798Z,9.03
2023-04-24T04:52:56.061Z,8.27
2023-04-24T04:55:24.659Z,7.83
2023-04-24T04:57:53.720Z,6.63
2023-04-24T05:00:22.279Z,7.80
2023-04-24T05:02:50.792Z,9.07
2023-04-24T05:05:19.981Z,7.47
2023-04-24T05:07:49.626Z,9.53
2023-04-24T05:10:18.226Z,7.70
2023-04-24T05:12:46.612Z,8.00
2023-04-24T05:15:15.136Z,8.73
2023-04-24T05:17:43.509Z,6.63
2023-04-24T05:20:12.001Z,8.60
2023-04-24T05:22:40.388Z,7.00
2023-04-24T05:25:10.671Z,8.07
2023-04-24T05:27:38.932Z,6.93
2023-04-24T05:30:08.643Z,8.10
2023-04-24T05:32:36.942Z,7.90
2023-04-24T05:35:08.792Z,8.40
2023-04-24T05:37:37.049Z,9.00
2023-04-24T05:40:06.785Z,10.17
2023-04-24T05:42:36.411Z,9.03
2023-04-24T05:45:05.512Z,10.37
2023-04-24T05:47:33.791Z,18.40
2023-04-24T05:50:02.142Z,15.40
2023-04-24T05:52:30.494Z,14.67
2023-04-24T05:54:58.799Z,11.27
2023-04-24T05:57:27.297Z,9.57
2023-04-24T05:59:56.975Z,9.60
2023-04-24T06:02:25.532Z,9.80
2023-04-24T06:04:54.308Z,11.13
2023-04-24T06:07:22.793Z,12.20
2023-04-24T06:09:51.126Z,22.60
2023-04-24T06:12:19.331Z,29.77
2023-04-24T06:14:47.629Z,89.40
2023-04-24T06:17:17.773Z,41.57
2023-04-24T06:19:46.103Z,19.60
2023-04-24T06:22:14.483Z,14.30
2023-04-24T06:24:43.320Z,11.27
2023-04-24T06:27:12.202Z,9.37
2023-04-24T06:29:41.215Z,19.20
2023-04-24T06:32:10.076Z,17.90
2023-04-24T06:34:39.779Z,17.03
2023-04-24T06:37:08.357Z,30.43
2023-04-24T06:39:36.581Z,21.30
2023-04-24T06:42:05.068Z,12.27
2023-04-24T06:44:33.344Z,31.37
2023-04-24T06:47:01.666Z,18.40
2023-04-24T06:49:29.846Z,16.90
2023-04-24T06:51:59.568Z,10.97
2023-04-24T06:54:27.869Z,10.77
2023-04-24T06:56:56.420Z,9.40
2023-04-24T06:59:24.919Z,10.10
2023-04-24T07:01:55.171Z,9.63
2023-04-24T07:04:25.954Z,9.30
2023-04-24T07:06:56.918Z,12.90
2023-04-24T07:09:28.269Z,7.32
2023-04-24T07:11:57.531Z,9.87
2023-04-24T07:14:25.808Z,10.07
2023-04-24T07:16:54.127Z,12.23
2023-04-24T07:19:22.369Z,7.97
2023-04-24T07:21:50.693Z,9.97
2023-04-24T07:26:49.002Z,8.13
2023-04-24T07:29:17.297Z,10.43
2023-04-24T07:31:45.760Z,8.87
2023-04-24T07:34:14.022Z,7.53
2023-04-24T07:36:43.613Z,7.53
2023-04-24T07:39:11.930Z,10.57
2023-04-24T07:41:40.195Z,6.60
2023-04-24T07:44:10.169Z,8.60
2023-04-24T07:46:38.467Z,13.23
2023-04-24T07:49:13.586Z,10.67
2023-04-24T07:51:42.966Z,12.47
2023-04-24T07:54:11.916Z,10.40
2023-04-24T07:56:40.903Z,11.97
2023-04-24T07:59:11.110Z,13.20
2023-04-24T08:01:39.457Z,12.93
2023-04-24T08:04:08.120Z,10.57
2023-04-24T08:06:36.658Z,7.90
2023-04-24T08:09:05.625Z,8.10
2023-04-24T08:11:34.085Z,8.90
2023-04-24T08:14:02.410Z,7.93
2023-04-24T08:16:32.280Z,10.70
2023-04-24T08:19:00.637Z,9.73
2023-04-24T08:21:29.048Z,8.00
2023-04-24T08:23:57.348Z,6.57
2023-04-24T08:26:25.812Z,7.87
2023-04-24T08:28:54.277Z,10.17
2023-04-24T08:31:23.973Z,8.03
2023-04-24T08:33:53.706Z,5.40
2023-04-24T08:36:22.771Z,8.25
2023-04-24T08:38:52.068Z,8.27
2023-04-24T08:41:22.381Z,7.13
2023-04-24T08:43:50.942Z,7.83
2023-04-24T08:46:20.615Z,10.43
2023-04-24T08:48:50.151Z,8.83
2023-04-24T08:51:20.121Z,6.40
2023-04-24T08:53:48.871Z,6.90
2023-04-24T08:56:17.307Z,9.07
2023-04-24T08:58:46.432Z,6.22
2023-04-24T09:01:15.158Z,13.20
2023-04-24T09:03:43.652Z,8.75
2023-04-24T09:06:13.639Z,7.03
2023-04-24T09:08:44.979Z,7.93
2023-04-24T09:11:14.092Z,6.03
2023-04-24T09:13:42.710Z,7.40
2023-04-24T09:16:11.078Z,10.55
2023-04-24T09:18:39.421Z,7.80
2023-04-24T09:21:11.038Z,7.03
2023-04-24T09:23:39.336Z,7.72
2023-04-24T09:26:11.113Z,8.50
2023-04-24T09:28:41.802Z,10.75
2023-04-24T09:31:12.258Z,5.90
2023-04-24T09:33:40.758Z,9.13
2023-04-24T09:36:09.153Z,8.02
2023-04-24T09:38:39.223Z,10.80
2023-04-24T09:41:10.478Z,8.90
2023-04-24T09:43:38.744Z,8.52
2023-04-24T09:46:10.650Z,9.05
2023-04-24T09:48:40.256Z,11.30
2023-04-24T09:51:11.921Z,11.07
2023-04-24T09:53:41.493Z,9.07
2023-04-24T09:56:13.577Z,9.15
2023-04-24T09:58:42.101Z,10.32
2023-04-24T10:01:10.661Z,8.52
2023-04-24T10:03:41.838Z,8.25
2023-04-24T10:06:13.717Z,9.55
2023-04-24T10:08:42.372Z,9.95
2023-04-24T10:11:12.722Z,8.32
2023-04-24T10:13:42.662Z,10.38
2023-04-24T10:16:11.868Z,9.43
2023-04-24T10:18:41.604Z,7.40
2023-04-24T10:21:09.973Z,9.65
2023-04-24T10:23:39.488Z,10.13
2023-04-24T10:26:08.198Z,6.88
2023-04-24T10:28:39.202Z,5.28
2023-04-24T10:31:07.750Z,8.55
2023-04-24T10:33:36.369Z,10.32
2023-04-24T10:36:05.276Z,9.75
2023-04-24T10:38:34.151Z,9.43
2023-04-24T10:41:11.673Z,7.68
2023-04-24T10:43:42.813Z,6.55
2023-04-24T10:46:12.319Z,7.35
2023-04-24T10:48:45.455Z,7.45
2023-04-24T10:51:15.574Z,12.07
2023-04-24T10:53:43.825Z,9.65
2023-04-24T10:56:13.291Z,10.38
2023-04-24T10:58:46.004Z,7.38
2023-04-24T11:01:27.469Z,10.30
2023-04-24T11:03:58.745Z,6.25
2023-04-24T11:06:33.840Z,6.05
2023-04-24T11:09:06.522Z,8.63
2023-04-24T11:11:35.749Z,6.63
2023-04-24T11:14:08.011Z,5.60
2023-04-24T11:16:39.579Z,6.70
2023-04-24T11:19:11.872Z,7.22
2023-04-24T11:21:44.551Z,7.80
2023-04-24T11:24:33.975Z,5.10
2023-04-24T11:27:08.930Z,10.48
2023-04-24T11:29:49.577Z,13.65
2023-04-24T11:32:21.015Z,6.75
2023-04-24T11:34:51.267Z,5.97
2023-04-24T11:37:19.726Z,6.80
2023-04-24T11:39:48.088Z,6.95
2023-04-24T11:42:18.009Z,5.60
2023-04-24T11:44:49.620Z,8.80
2023-04-24T11:47:17.882Z,10.48
2023-04-24T11:49:46.256Z,10.82
2023-04-24T11:52:18.240Z,12.75
2023-04-24T11:54:51.301Z,8.85
2023-04-24T11:57:22.764Z,7.68
2023-04-24T11:59:52.748Z,7.88
2023-04-24T12:02:25.883Z,6.53
2023-04-24T12:04:55.203Z,11.38
2023-04-24T12:07:24.717Z,8.50
2023-04-24T12:09:59.580Z,8.68
2023-04-24T12:12:29.156Z,6.95
2023-04-24T12:15:00.202Z,10.30
2023-04-24T12:17:31.207Z,7.63
2023-04-24T12:20:03.813Z,6.35
2023-04-24T12:22:46.794Z,8.68
2023-04-24T12:25:16.128Z,6.47
2023-04-24T12:27:45.311Z,7.57
2023-04-24T12:30:17.037Z,11.25
2023-04-24T12:32:46.326Z,10.13
2023-04-24T12:35:15.086Z,7.30
2023-04-24T12:37:47.379Z,7.68
2023-04-24T12:40:16.819Z,7.07
2023-04-24T12:42:46.671Z,8.52
2023-04-24T12:45:16.772Z,7.57
2023-04-24T12:47:46.676Z,7.88
2023-04-24T12:50:16.869Z,6.70
2023-04-24T12:52:46.350Z,7.05
2023-04-24T12:55:14.884Z,10.10
2023-04-24T12:57:43.203Z,8.23
2023-04-24T13:00:12.189Z,8.07
2023-04-24T13:02:42.008Z,7.50
2023-04-24T13:05:12.720Z,8.18
2023-04-24T13:07:41.138Z,7.35
2023-04-24T13:13:09.143Z,5.93
2023-04-24T13:15:37.677Z,7.72
2023-04-24T13:18:06.334Z,6.75
2023-04-24T13:20:36.625Z,8.00
2023-04-24T13:23:04.986Z,5.63
2023-04-24T13:25:38.546Z,4.63
2023-04-24T13:28:08.382Z,5.75
2023-04-24T13:30:36.739Z,6.75
2023-04-24T13:33:05.288Z,6.50
2023-04-24T13:35:33.745Z,4.55
2023-04-24T13:38:06.973Z,5.72
2023-04-24T13:40:35.965Z,9.15
2023-04-24T13:43:04.470Z,12.15
2023-04-24T13:45:34.242Z,27.15
2023-04-24T13:48:04.144Z,25.48
2023-04-24T13:50:32.616Z,12.68
2023-04-24T13:53:02.668Z,12.57
2023-04-24T13:55:32.019Z,12.90
2023-04-24T13:58:00.532Z,9.60
2023-04-24T14:00:28.872Z,11.35
2023-04-24T14:02:58.712Z,6.70
2023-04-24T14:05:27.292Z,6.45
2023-04-24T14:07:55.586Z,5.28
2023-04-24T14:10:24.447Z,4.75
2023-04-24T14:12:54.097Z,5.15
2023-04-24T14:15:22.762Z,9.65
2023-04-24T14:17:51.345Z,8.30
2023-04-24T14:20:21.705Z,6.30
2023-04-24T14:22:50.016Z,5.22
2023-04-24T14:25:18.439Z,4.60
2023-04-24T14:27:47.998Z,6.18
2023-04-24T14:30:19.902Z,5.13
2023-04-24T14:32:48.310Z,5.82
2023-04-24T14:35:16.785Z,5.22
2023-04-24T14:37:46.607Z,5.07
2023-04-24T14:40:32.034Z,4.15
2023-04-24T14:43:03.681Z,4.05
2023-04-24T14:45:32.091Z,6.93
2023-04-24T14:48:00.660Z,9.57
2023-04-24T14:50:29.535Z,10.90
2023-04-24T14:52:59.619Z,15.68
2023-04-24T14:55:28.211Z,20.35
2023-04-24T14:57:56.826Z,16.33
2023-04-24T15:00:25.510Z,10.80
2023-04-24T15:02:54.071Z,10.48
2023-04-24T15:05:23.168Z,7.35
2023-04-24T15:07:51.687Z,9.23
2023-04-24T15:10:24.011Z,4.65
2023-04-24T15:12:52.533Z,6.28
2023-04-24T15:15:21.229Z,7.00
2023-04-24T15:17:49.579Z,3.95
2023-04-24T15:20:19.388Z,6.93
2023-04-24T15:22:47.736Z,3.03
2023-04-24T15:25:16.183Z,3.10
2023-04-24T15:27:47.384Z,2.72
2023-04-24T15:30:16.236Z,2.67
2023-04-24T15:32:44.702Z,3.40
2023-04-24T15:35:12.985Z,5.30
2023-04-24T15:37:41.313Z,3.95
2023-04-24T15:40:12.306Z,4.22
2023-04-24T15:42:41.105Z,3.10
2023-04-24T15:45:12.333Z,2.05
2023-04-24T15:47:40.866Z,2.70
2023-04-24T15:50:14.237Z,2.72
2023-04-24T15:52:43.100Z,3.72
2023-04-24T15:55:12.375Z,5.78
2023-04-24T15:57:41.107Z,4.43
2023-04-24T16:00:12.719Z,3.55
2023-04-24T16:02:41.467Z,3.58
2023-04-24T16:05:11.190Z,5.40
2023-04-24T16:07:40.475Z,4.00
2023-04-24T16:10:10.246Z,5.15
2023-04-24T16:12:38.686Z,2.70
2023-04-24T16:15:08.788Z,3.15
2023-04-24T16:17:38.516Z,2.38
2023-04-24T16:20:08.658Z,2.75
2023-04-24T16:22:37.099Z,3.30
2023-04-24T16:25:06.466Z,1.67
2023-04-24T16:27:35.278Z,1.95
2023-04-24T16:30:04.011Z,1.65
2023-04-24T16:32:32.466Z,1.40
2023-04-24T16:35:02.333Z,1.83
2023-04-24T16:37:31.200Z,2.65
2023-04-24T16:39:59.599Z,2.83
2023-04-24T16:42:28.102Z,3.30
2023-04-24T16:44:56.403Z,3.22
2023-04-24T16:47:24.835Z,3.53
2023-04-24T16:49:53.177Z,2.40
2023-04-24T16:52:22.946Z,2.40
2023-04-24T16:54:51.400Z,1.50
2023-04-24T16:57:19.859Z,1.98
2023-04-24T16:59:48.126Z,1.40
2023-04-24T17:02:16.585Z,2.08
2023-04-24T17:04:45.065Z,1.40
2023-04-24T17:07:13.958Z,1.50
2023-04-24T17:09:43.985Z,2.78
2023-04-24T17:12:12.257Z,1.88
2023-04-24T17:14:40.883Z,2.67
2023-04-24T17:17:09.141Z,7.65
2023-04-24T17:19:37.457Z,7.25
2023-04-24T17:22:06.586Z,6.68
2023-04-24T17:24:35.339Z,5.97
2023-04-24T17:27:14.513Z,5.50
2023-04-24T17:29:43.682Z,6.40
2023-04-24T17:32:12.131Z,9.98
2023-04-24T17:34:40.848Z,22.20
2023-04-24T17:37:09.335Z,29.27
2023-04-24T17:39:37.713Z,36.05
2023-04-24T17:42:07.751Z,26.70
2023-04-24T17:44:36.432Z,20.30
2023-04-24T17:47:05.220Z,16.33
2023-04-24T17:49:34.210Z,11.57
2023-04-24T17:52:02.550Z,11.30
2023-04-24T17:54:30.943Z,8.33
2023-04-24T17:56:59.219Z,8.77
2023-04-24T17:59:28.915Z,6.93
2023-04-24T18:01:57.992Z,6.90
2023-04-24T18:04:27.063Z,5.17
2023-04-24T18:06:55.554Z,5.93
2023-04-24T18:09:23.986Z,6.40
2023-04-24T18:11:52.386Z,5.57
2023-04-24T18:14:20.856Z,5.27
2023-04-24T18:16:50.544Z,8.50
2023-04-24T18:19:18.930Z,9.77
2023-04-24T18:21:47.281Z,7.00
2023-04-24T18:24:15.546Z,8.67
2023-04-24T18:26:43.909Z,9.23
2023-04-24T18:29:12.214Z,7.90
2023-04-24T18:31:40.626Z,6.97
2023-04-24T18:34:10.524Z,8.17
2023-04-24T18:36:38.944Z,8.93
2023-04-24T18:39:07.300Z,8.73
2023-04-24T18:41:35.780Z,10.03
2023-04-24T18:44:04.184Z,7.53
2023-04-24T18:46:38.006Z,7.83
2023-04-24T18:49:06.443Z,8.60
2023-04-24T18:51:50.198Z,9.40
2023-04-24T18:54:18.865Z,9.53
2023-04-24T18:56:47.271Z,9.67
2023-04-24T18:59:15.698Z,8.40
2023-04-24T19:01:44.120Z,9.37
2023-04-24T19:04:12.688Z,9.97
2023-04-24T19:06:42.435Z,10.23
2023-04-24T19:09:10.839Z,10.30
2023-04-24T19:11:39.424Z,12.23
2023-04-24T19:14:07.746Z,8.90
2023-04-24T19:16:36.219Z,7.87
2023-04-24T19:19:05.617Z,8.20
2023-04-24T19:21:34.624Z,7.37
2023-04-24T19:24:04.690Z,10.23
2023-04-24T19:26:33.093Z,10.80
2023-04-24T19:29:01.434Z,12.83
2023-04-24T19:31:29.862Z,15.83
2023-04-24T19:33:58.261Z,14.07
2023-04-24T19:36:27.019Z,14.00
2023-04-24T19:38:55.382Z,10.83
2023-04-24T19:41:25.098Z,10.93
2023-04-24T19:43:53.492Z,10.17
2023-04-24T19:46:21.887Z,11.40
2023-04-24T19:48:50.787Z,10.80
2023-04-24T19:51:19.472Z,11.80
2023-04-24T19:53:49.442Z,7.27
2023-04-24T19:56:17.840Z,10.07
2023-04-24T19:58:47.730Z,9.10
2023-04-24T20:01:16.360Z,9.77
2023-04-24T20:03:44.928Z,10.40
2023-04-24T20:06:13.350Z,11.20
2023-04-24T20:08:42.895Z,10.43
2023-04-24T20:11:11.307Z,9.40
2023-04-24T20:13:39.611Z,11.30
2023-04-24T20:16:11.236Z,10.10
2023-04-24T20:18:39.966Z,12.33
2023-04-24T20:21:08.327Z,8.93
2023-04-24T20:23:36.803Z,9.47
2023-04-24T20:26:05.501Z,8.67
2023-04-24T20:28:33.827Z,14.23
2023-04-24T20:31:02.166Z,10.37
2023-04-24T20:33:32.463Z,9.90
2023-04-24T20:36:00.909Z,8.63
2023-04-24T20:38:29.738Z,9.63
2023-04-24T20:40:58.538Z,9.03
2023-04-24T20:43:29.177Z,9.43
2023-04-24T20:45:58.554Z,10.37
2023-04-24T20:48:27.304Z,11.27
2023-04-24T20:50:57.071Z,9.57
2023-04-24T20:53:25.575Z,11.67
2023-04-24T20:55:54.018Z,13.27
2023-04-24T20:58:23.937Z,10.97
2023-04-24T21:00:52.923Z,11.80
2023-04-24T21:03:21.811Z,13.20
2023-04-24T21:05:50.194Z,10.80
2023-04-24T21:08:20.277Z,11.97
2023-04-24T21:10:48.567Z,9.43
2023-04-24T21:13:17.121Z,10.83
2023-04-24T21:15:45.619Z,12.93
2023-04-24T21:18:14.068Z,11.50
2023-04-24T21:20:42.413Z,11.33
2023-04-24T21:23:10.742Z,10.17
2023-04-24T21:25:40.789Z,12.70
2023-04-24T21:28:09.712Z,10.57
2023-04-24T21:30:39.365Z,10.07
2023-04-24T21:33:07.924Z,8.90
2023-04-24T21:35:36.409Z,9.97
2023-04-24T21:38:04.718Z,11.50
2023-04-24T21:40:33.327Z,9.73
2023-04-24T21:43:03.849Z,11.07
2023-04-24T21:45:32.912Z,10.70
2023-04-24T21:48:02.103Z,11.53
2023-04-24T21:50:30.648Z,12.70
2023-04-24T21:52:59.063Z,10.83
2023-04-24T21:55:27.829Z,10.07
2023-04-24T21:57:56.502Z,8.93
2023-04-24T22:00:26.443Z,8.30
2023-04-24T22:02:54.878Z,10.70
2023-04-24T22:05:23.868Z,9.53
2023-04-24T22:07:54.273Z,9.10
2023-04-24T22:10:22.764Z,11.63
2023-04-24T22:12:51.273Z,11.50
2023-04-24T22:15:19.835Z,10.90
2023-04-24T22:17:50.130Z,11.47
2023-04-24T22:20:18.568Z,12.30
2023-04-24T22:22:47.100Z,12.73
2023-04-24T22:25:15.840Z,10.57
2023-04-24T22:27:44.240Z,11.00
2023-04-24T22:30:13.363Z,9.10
2023-04-24T22:32:41.741Z,11.07
2023-04-24T22:35:11.803Z,13.30
2023-04-24T22:37:40.197Z,10.50
2023-04-24T22:40:10.255Z,11.43
2023-04-24T22:42:38.741Z,13.40
2023-04-24T22:45:11.497Z,10.23
2023-04-24T22:47:40.056Z,8.77
2023-04-24T22:50:10.606Z,11.37
2023-04-24T22:52:41.192Z,10.80
2023-04-24T22:55:10.874Z,8.43
2023-04-24T22:57:39.435Z,9.10
2023-04-24T23:00:11.341Z,8.53
2023-04-24T23:02:41.530Z,11.00
2023-04-24T23:05:11.868Z,10.40
2023-04-24T23:07:41.584Z,11.77
2023-04-24T23:10:10.845Z,11.90
2023-04-24T23:12:39.498Z,12.43
2023-04-24T23:15:09.260Z,8.90
2023-04-24T23:17:37.665Z,9.90
2023-04-24T23:20:07.224Z,7.83
2023-04-24T23:22:35.588Z,11.17
2023-04-24T23:25:06.320Z,12.27
2023-04-24T23:27:34.604Z,11.30
2023-04-24T23:30:02.945Z,10.63
2023-04-24T23:32:31.322Z,11.93
2023-04-24T23:34:59.631Z,9.00
2023-04-24T23:37:28.239Z,11.03
2023-04-24T23:39:56.685Z,8.73
2023-04-24T23:42:26.462Z,11.10
2023-04-24T23:44:54.962Z,10.20
2023-04-24T23:47:23.402Z,9.67
2023-04-24T23:49:51.789Z,8.63
2023-04-24T23:52:20.252Z,9.57
2023-04-24T23:54:48.584Z,10.90
2023-04-24T23:57:16.988Z,11.50
2023-04-24T23:59:46.974Z,10.30
